Turtle Creek, Pennsylvania
Current Conditions -  °F | °C
As of 4:53 AM on Friday 31 Oct 2014 (Local Time) from KAGC Reporting Station
Overcast Overcast  
Wind Chill: 41°   Ceiling: 4900
Heat Index: 44°   Visibility: 10mi
Dew Point: 34°   Wind: 6mph
Humidity: 68%   Direction: 220°SW
Pressure: 29.97"   Gusts: NA
Location:  40.41°N, 79.82°W
Report Text: KAGC 310853Z 22005KT 10SM OVC049 07/01 A2997 RMK AO2 SLP159 T00670011 56010
Loading
Personal Weather Stations






























Interactive Weather Map
Tropical Storm Tracking
New forecast layout! Learn more

10-Day Weather Forecast

Advertisements
Track Severe Weather on mobile